sensor_id;sensor_type;location;lat;lon;timestamp;temperature;humidity
37518;DHT22;23366;52.498;13.446;2022-09-12T00:02:03;16.00;99.90
37518;DHT22;23366;52.498;13.446;2022-09-12T00:04:29;16.00;99.90
37518;DHT22;23366;52.498;13.446;2022-09-12T00:06:55;16.00;99.90
37518;DHT22;23366;52.498;13.446;2022-09-12T00:09:20;15.90;99.90
37518;DHT22;23366;52.498;13.446;2022-09-12T00:11:46;15.90;99.90
37518;DHT22;23366;52.498;13.446;2022-09-12T00:14:17;15.90;99.90
37518;DHT22;23366;52.498;13.446;2022-09-12T00:16:43;15.80;99.90
37518;DHT22;23366;52.498;13.446;2022-09-12T00:19:09;15.80;99.90
37518;DHT22;23366;52.498;13.446;2022-09-12T00:21:36;15.80;99.90
37518;DHT22;23366;52.498;13.446;2022-09-12T00:24:03;15.70;99.90
37518;DHT22;23366;52.498;13.446;2022-09-12T00:26:28;15.70;99.90
37518;DHT22;23366;52.498;13.446;2022-09-12T00:28:54;15.70;99.90
37518;DHT22;23366;52.498;13.446;2022-09-12T00:31:22;15.70;99.90
37518;DHT22;23366;52.498;13.446;2022-09-12T00:33:51;15.70;99.90
37518;DHT22;23366;52.498;13.446;2022-09-12T00:36:19;15.60;99.90
37518;DHT22;23366;52.498;13.446;2022-09-12T00:38:46;15.60;99.90
37518;DHT22;23366;52.498;13.446;2022-09-12T00:43:51;15.50;99.90
37518;DHT22;23366;52.498;13.446;2022-09-12T00:49:00;15.50;99.90
37518;DHT22;23366;52.498;13.446;2022-09-12T00:51:29;15.50;99.90
37518;DHT22;23366;52.498;13.446;2022-09-12T00:53:56;15.40;99.90
37518;DHT22;23366;52.498;13.446;2022-09-12T00:56:24;15.40;99.90
37518;DHT22;23366;52.498;13.446;2022-09-12T00:58:57;15.40;99.90
37518;DHT22;23366;52.498;13.446;2022-09-12T01:01:24;15.40;99.90
37518;DHT22;23366;52.498;13.446;2022-09-12T01:03:49;15.30;99.90
37518;DHT22;23366;52.498;13.446;2022-09-12T01:06:29;15.40;99.90
37518;DHT22;23366;52.498;13.446;2022-09-12T01:08:57;15.40;99.90
37518;DHT22;23366;52.498;13.446;2022-09-12T01:11:24;15.40;99.90
37518;DHT22;23366;52.498;13.446;2022-09-12T01:13:50;15.30;99.90
37518;DHT22;23366;52.498;13.446;2022-09-12T01:16:16;15.30;99.90
37518;DHT22;23366;52.498;13.446;2022-09-12T01:18:50;15.30;99.90
37518;DHT22;23366;52.498;13.446;2022-09-12T01:21:34;15.30;99.90
37518;DHT22;23366;52.498;13.446;2022-09-12T01:38:19;15.20;99.90
37518;DHT22;23366;52.498;13.446;2022-09-12T01:40:57;15.20;99.90
37518;DHT22;23366;52.498;13.446;2022-09-12T01:43:47;15.10;99.90
37518;DHT22;23366;52.498;13.446;2022-09-12T01:46:18;15.10;99.90
37518;DHT22;23366;52.498;13.446;2022-09-12T01:49:05;15.10;99.90
37518;DHT22;23366;52.498;13.446;2022-09-12T01:52:22;15.10;99.90
37518;DHT22;23366;52.498;13.446;2022-09-12T01:54:49;15.10;99.90
37518;DHT22;23366;52.498;13.446;2022-09-12T01:57:38;15.10;99.90
37518;DHT22;23366;52.498;13.446;2022-09-12T02:00:09;15.10;99.90
37518;DHT22;23366;52.498;13.446;2022-09-12T02:03:02;15.00;99.90
37518;DHT22;23366;52.498;13.446;2022-09-12T02:05:44;15.00;99.90
37518;DHT22;23366;52.498;13.446;2022-09-12T02:08:13;15.00;99.90
37518;DHT22;23366;52.498;13.446;2022-09-12T02:10:45;15.00;99.90
37518;DHT22;23366;52.498;13.446;2022-09-12T02:13:17;15.00;99.90
37518;DHT22;23366;52.498;13.446;2022-09-12T02:15:48;15.00;99.90
37518;DHT22;23366;52.498;13.446;2022-09-12T02:18:17;14.90;99.90
37518;DHT22;23366;52.498;13.446;2022-09-12T02:20:46;14.90;99.90
37518;DHT22;23366;52.498;13.446;2022-09-12T02:23:17;14.90;99.90
37518;DHT22;23366;52.498;13.446;2022-09-12T02:25:47;14.90;99.90
37518;DHT22;23366;52.498;13.446;2022-09-12T02:28:22;14.80;99.90
37518;DHT22;23366;52.498;13.446;2022-09-12T02:31:06;14.80;99.90
37518;DHT22;23366;52.498;13.446;2022-09-12T02:36:15;14.80;99.90
37518;DHT22;23366;52.498;13.446;2022-09-12T02:38:49;14.90;99.90
37518;DHT22;23366;52.498;13.446;2022-09-12T02:41:18;14.90;99.90
37518;DHT22;23366;52.498;13.446;2022-09-12T02:43:45;14.80;99.90
37518;DHT22;23366;52.498;13.446;2022-09-12T02:46:31;14.90;99.90
37518;DHT22;23366;52.498;13.446;2022-09-12T02:48:58;14.90;99.90
37518;DHT22;23366;52.498;13.446;2022-09-12T02:51:24;14.90;99.90
37518;DHT22;23366;52.498;13.446;2022-09-12T02:53:50;14.90;99.90
37518;DHT22;23366;52.498;13.446;2022-09-12T02:56:23;14.90;99.90
37518;DHT22;23366;52.498;13.446;2022-09-12T02:58:50;14.90;99.90
37518;DHT22;23366;52.498;13.446;2022-09-12T03:01:26;15.00;99.90
37518;DHT22;23366;52.498;13.446;2022-09-12T03:06:34;14.90;99.90
37518;DHT22;23366;52.498;13.446;2022-09-12T03:19:51;14.80;99.90
37518;DHT22;23366;52.498;13.446;2022-09-12T03:23:08;14.80;99.90
37518;DHT22;23366;52.498;13.446;2022-09-12T03:28:05;14.70;99.90
37518;DHT22;23366;52.498;13.446;2022-09-12T03:30:43;14.70;99.90
37518;DHT22;23366;52.498;13.446;2022-09-12T03:33:14;14.70;99.90
37518;DHT22;23366;52.498;13.446;2022-09-12T03:35:40;14.70;99.90
37518;DHT22;23366;52.498;13.446;2022-09-12T03:38:06;14.70;99.90
37518;DHT22;23366;52.498;13.446;2022-09-12T03:40:33;14.60;99.90
37518;DHT22;23366;52.498;13.446;2022-09-12T03:42:59;14.60;99.90
37518;DHT22;23366;52.498;13.446;2022-09-12T03:45:25;14.60;99.90
37518;DHT22;23366;52.498;13.446;2022-09-12T03:47:50;14.60;99.90
37518;DHT22;23366;52.498;13.446;2022-09-12T03:50:17;14.50;99.90
37518;DHT22;23366;52.498;13.446;2022-09-12T03:52:42;14.50;99.90
37518;DHT22;23366;52.498;13.446;2022-09-12T03:55:09;14.50;99.90
37518;DHT22;23366;52.498;13.446;2022-09-12T03:57:35;14.50;99.90
37518;DHT22;23366;52.498;13.446;2022-09-12T04:00:05;14.50;99.90
37518;DHT22;23366;52.498;13.446;2022-09-12T04:02:53;14.50;99.90
37518;DHT22;23366;52.498;13.446;2022-09-12T04:05:19;14.40;99.90
37518;DHT22;23366;52.498;13.446;2022-09-12T04:07:45;14.40;99.90
37518;DHT22;23366;52.498;13.446;2022-09-12T04:10:10;14.40;99.90
37518;DHT22;23366;52.498;13.446;2022-09-12T04:12:36;14.40;99.90
37518;DHT22;23366;52.498;13.446;2022-09-12T04:15:04;14.40;99.90
37518;DHT22;23366;52.498;13.446;2022-09-12T04:17:33;14.40;99.90
37518;DHT22;23366;52.498;13.446;2022-09-12T04:19:59;14.40;99.90
37518;DHT22;23366;52.498;13.446;2022-09-12T04:22:24;14.40;99.90
37518;DHT22;23366;52.498;13.446;2022-09-12T04:24:51;14.40;99.90
37518;DHT22;23366;52.498;13.446;2022-09-12T04:27:17;14.40;99.90
37518;DHT22;23366;52.498;13.446;2022-09-12T04:29:42;14.40;99.90
37518;DHT22;23366;52.498;13.446;2022-09-12T04:32:08;14.30;99.90
37518;DHT22;23366;52.498;13.446;2022-09-12T04:34:34;14.40;99.90
37518;DHT22;23366;52.498;13.446;2022-09-12T04:36:59;14.40;99.90
37518;DHT22;23366;52.498;13.446;2022-09-12T04:39:25;14.40;99.90
37518;DHT22;23366;52.498;13.446;2022-09-12T04:41:50;14.40;99.90
37518;DHT22;23366;52.498;13.446;2022-09-12T04:44:16;14.40;99.90
37518;DHT22;23366;52.498;13.446;2022-09-12T04:46:44;14.40;99.90
37518;DHT22;23366;52.498;13.446;2022-09-12T04:49:11;14.40;99.90
37518;DHT22;23366;52.498;13.446;2022-09-12T04:51:39;14.40;99.90
37518;DHT22;23366;52.498;13.446;2022-09-12T04:54:11;14.40;99.90
37518;DHT22;23366;52.498;13.446;2022-09-12T04:56:39;14.40;99.90
37518;DHT22;23366;52.498;13.446;2022-09-12T04:59:05;14.50;99.90
37518;DHT22;23366;52.498;13.446;2022-09-12T05:01:31;14.50;99.90
37518;DHT22;23366;52.498;13.446;2022-09-12T05:03:58;14.50;99.90
37518;DHT22;23366;52.498;13.446;2022-09-12T05:06:28;14.50;99.90
37518;DHT22;23366;52.498;13.446;2022-09-12T05:08:54;14.60;99.90
37518;DHT22;23366;52.498;13.446;2022-09-12T05:11:23;14.70;99.90
37518;DHT22;23366;52.498;13.446;2022-09-12T05:13:49;14.70;99.90
37518;DHT22;23366;52.498;13.446;2022-09-12T05:16:16;14.80;99.90
37518;DHT22;23366;52.498;13.446;2022-09-12T05:18:43;15.00;99.90
37518;DHT22;23366;52.498;13.446;2022-09-12T05:21:17;15.70;99.90
37518;DHT22;23366;52.498;13.446;2022-09-12T05:23:42;16.60;99.90
37518;DHT22;23366;52.498;13.446;2022-09-12T05:26:13;17.60;99.90
37518;DHT22;23366;52.498;13.446;2022-09-12T05:28:39;18.50;99.90
37518;DHT22;23366;52.498;13.446;2022-09-12T05:33:34;19.90;99.90
37518;DHT22;23366;52.498;13.446;2022-09-12T05:36:01;20.50;99.90
37518;DHT22;23366;52.498;13.446;2022-09-12T05:38:26;21.10;99.90
37518;DHT22;23366;52.498;13.446;2022-09-12T05:41:03;21.40;99.90
37518;DHT22;23366;52.498;13.446;2022-09-12T05:43:31;21.80;99.90
37518;DHT22;23366;52.498;13.446;2022-09-12T05:46:04;22.10;99.90
37518;DHT22;23366;52.498;13.446;2022-09-12T05:48:30;22.40;99.90
37518;DHT22;23366;52.498;13.446;2022-09-12T05:50:59;22.50;99.90
37518;DHT22;23366;52.498;13.446;2022-09-12T05:53:26;22.70;99.90
37518;DHT22;23366;52.498;13.446;2022-09-12T05:56:01;22.80;99.90
37518;DHT22;23366;52.498;13.446;2022-09-12T05:58:27;22.80;99.80
37518;DHT22;23366;52.498;13.446;2022-09-12T06:00:53;22.90;99.50
37518;DHT22;23366;52.498;13.446;2022-09-12T06:03:18;23.00;99.20
37518;DHT22;23366;52.498;13.446;2022-09-12T06:05:44;23.00;98.90
37518;DHT22;23366;52.498;13.446;2022-09-12T06:08:09;23.00;98.60
37518;DHT22;23366;52.498;13.446;2022-09-12T06:10:35;23.10;98.80
37518;DHT22;23366;52.498;13.446;2022-09-12T06:13:01;23.20;98.30
37518;DHT22;23366;52.498;13.446;2022-09-12T06:15:28;23.30;98.00
37518;DHT22;23366;52.498;13.446;2022-09-12T06:18:12;23.40;97.80
37518;DHT22;23366;52.498;13.446;2022-09-12T06:20:39;23.60;97.50
37518;DHT22;23366;52.498;13.446;2022-09-12T06:23:05;23.80;97.00
37518;DHT22;23366;52.498;13.446;2022-09-12T06:25:30;24.00;97.00
37518;DHT22;23366;52.498;13.446;2022-09-12T06:27:56;24.30;96.10
37518;DHT22;23366;52.498;13.446;2022-09-12T06:30:21;24.70;95.30
37518;DHT22;23366;52.498;13.446;2022-09-12T06:32:47;25.20;94.30
37518;DHT22;23366;52.498;13.446;2022-09-12T06:35:12;25.70;93.60
37518;DHT22;23366;52.498;13.446;2022-09-12T06:37:38;26.20;92.70
37518;DHT22;23366;52.498;13.446;2022-09-12T06:40:05;26.70;91.70
37518;DHT22;23366;52.498;13.446;2022-09-12T06:42:34;27.30;90.60
37518;DHT22;23366;52.498;13.446;2022-09-12T06:44:59;27.80;89.10
37518;DHT22;23366;52.498;13.446;2022-09-12T06:47:25;28.40;86.90
37518;DHT22;23366;52.498;13.446;2022-09-12T06:49:50;28.90;84.40
37518;DHT22;23366;52.498;13.446;2022-09-12T06:52:16;29.20;82.30
37518;DHT22;23366;52.498;13.446;2022-09-12T06:54:42;29.50;81.10
37518;DHT22;23366;52.498;13.446;2022-09-12T06:57:07;29.90;80.10
37518;DHT22;23366;52.498;13.446;2022-09-12T06:59:33;30.10;78.10
37518;DHT22;23366;52.498;13.446;2022-09-12T07:01:58;30.50;77.20
37518;DHT22;23366;52.498;13.446;2022-09-12T07:04:24;30.60;76.10
37518;DHT22;23366;52.498;13.446;2022-09-12T07:06:49;30.80;75.10
37518;DHT22;23366;52.498;13.446;2022-09-12T07:09:16;31.00;74.20
37518;DHT22;23366;52.498;13.446;2022-09-12T07:11:42;31.10;73.90
37518;DHT22;23366;52.498;13.446;2022-09-12T07:14:11;31.30;71.50
37518;DHT22;23366;52.498;13.446;2022-09-12T07:16:38;31.50;71.70
37518;DHT22;23366;52.498;13.446;2022-09-12T07:19:05;31.90;70.60
37518;DHT22;23366;52.498;13.446;2022-09-12T07:21:31;32.30;69.70
37518;DHT22;23366;52.498;13.446;2022-09-12T07:23:57;32.70;68.50
37518;DHT22;23366;52.498;13.446;2022-09-12T07:26:25;33.00;67.30
37518;DHT22;23366;52.498;13.446;2022-09-12T07:28:52;33.10;66.40
37518;DHT22;23366;52.498;13.446;2022-09-12T07:31:21;33.40;65.80
37518;DHT22;23366;52.498;13.446;2022-09-12T07:33:47;33.50;65.20
37518;DHT22;23366;52.498;13.446;2022-09-12T07:36:15;33.50;64.70
37518;DHT22;23366;52.498;13.446;2022-09-12T07:38:42;33.70;63.80
37518;DHT22;23366;52.498;13.446;2022-09-12T07:41:18;33.50;62.60
37518;DHT22;23366;52.498;13.446;2022-09-12T07:43:44;33.10;63.70
37518;DHT22;23366;52.498;13.446;2022-09-12T07:46:10;33.10;63.30
37518;DHT22;23366;52.498;13.446;2022-09-12T07:48:39;33.20;63.10
37518;DHT22;23366;52.498;13.446;2022-09-12T07:51:07;33.60;62.70
37518;DHT22;23366;52.498;13.446;2022-09-12T07:53:35;34.00;62.30
37518;DHT22;23366;52.498;13.446;2022-09-12T07:56:01;34.50;61.20
37518;DHT22;23366;52.498;13.446;2022-09-12T07:58:30;34.60;60.10
37518;DHT22;23366;52.498;13.446;2022-09-12T08:01:06;34.40;60.10
37518;DHT22;23366;52.498;13.446;2022-09-12T08:03:36;34.60;59.60
37518;DHT22;23366;52.498;13.446;2022-09-12T08:06:10;34.60;60.00
37518;DHT22;23366;52.498;13.446;2022-09-12T08:08:36;34.50;58.60
37518;DHT22;23366;52.498;13.446;2022-09-12T08:11:05;34.00;58.80
37518;DHT22;23366;52.498;13.446;2022-09-12T08:13:33;33.80;59.40
37518;DHT22;23366;52.498;13.446;2022-09-12T08:16:01;33.60;59.80
37518;DHT22;23366;52.498;13.446;2022-09-12T08:18:27;33.60;60.00
37518;DHT22;23366;52.498;13.446;2022-09-12T08:21:04;33.50;59.90
37518;DHT22;23366;52.498;13.446;2022-09-12T08:23:29;33.40;60.30
37518;DHT22;23366;52.498;13.446;2022-09-12T08:25:56;33.40;60.20
37518;DHT22;23366;52.498;13.446;2022-09-12T08:28:23;33.30;59.60
37518;DHT22;23366;52.498;13.446;2022-09-12T08:30:49;33.20;59.60
37518;DHT22;23366;52.498;13.446;2022-09-12T08:33:14;33.40;59.50
37518;DHT22;23366;52.498;13.446;2022-09-12T08:35:40;33.60;59.10
37518;DHT22;23366;52.498;13.446;2022-09-12T08:38:05;33.80;58.20
37518;DHT22;23366;52.498;13.446;2022-09-12T08:40:32;33.80;58.30
37518;DHT22;23366;52.498;13.446;2022-09-12T08:46:42;31.50;60.80
37518;DHT22;23366;52.498;13.446;2022-09-12T08:49:16;29.80;63.70
37518;DHT22;23366;52.498;13.446;2022-09-12T08:51:45;28.70;65.30
37518;DHT22;23366;52.498;13.446;2022-09-12T08:54:22;27.90;67.80
37518;DHT22;23366;52.498;13.446;2022-09-12T08:56:49;27.20;69.10
37518;DHT22;23366;52.498;13.446;2022-09-12T08:59:15;26.70;70.40
37518;DHT22;23366;52.498;13.446;2022-09-12T09:01:43;26.50;71.70
37518;DHT22;23366;52.498;13.446;2022-09-12T09:07:23;26.20;72.00
37518;DHT22;23366;52.498;13.446;2022-09-12T09:10:07;25.90;72.50
37518;DHT22;23366;52.498;13.446;2022-09-12T09:12:53;25.80;72.40
37518;DHT22;23366;52.498;13.446;2022-09-12T09:15:59;25.70;72.70
37518;DHT22;23366;52.498;13.446;2022-09-12T09:18:32;25.80;72.70
37518;DHT22;23366;52.498;13.446;2022-09-12T09:21:03;25.50;72.80
37518;DHT22;23366;52.498;13.446;2022-09-12T09:23:35;25.20;72.80
37518;DHT22;23366;52.498;13.446;2022-09-12T09:26:04;25.00;73.90
37518;DHT22;23366;52.498;13.446;2022-09-12T09:28:50;24.90;74.20
37518;DHT22;23366;52.498;13.446;2022-09-12T09:31:25;24.80;74.10
37518;DHT22;23366;52.498;13.446;2022-09-12T09:33:52;24.10;73.90
37518;DHT22;23366;52.498;13.446;2022-09-12T09:36:22;24.00;75.70
37518;DHT22;23366;52.498;13.446;2022-09-12T09:44:32;24.30;75.90
37518;DHT22;23366;52.498;13.446;2022-09-12T09:46:59;24.30;74.90
37518;DHT22;23366;52.498;13.446;2022-09-12T09:49:28;24.20;74.80
37518;DHT22;23366;52.498;13.446;2022-09-12T09:51:55;24.20;73.60
37518;DHT22;23366;52.498;13.446;2022-09-12T09:54:49;24.00;75.60
37518;DHT22;23366;52.498;13.446;2022-09-12T09:57:49;23.90;74.70
37518;DHT22;23366;52.498;13.446;2022-09-12T10:05:44;23.10;77.10
37518;DHT22;23366;52.498;13.446;2022-09-12T10:08:31;23.00;78.40
37518;DHT22;23366;52.498;13.446;2022-09-12T10:11:35;22.90;79.20
37518;DHT22;23366;52.498;13.446;2022-09-12T10:13:56;22.80;79.90
37518;DHT22;23366;52.498;13.446;2022-09-12T10:16:30;22.80;80.40
37518;DHT22;23366;52.498;13.446;2022-09-12T10:19:01;23.00;80.40
37518;DHT22;23366;52.498;13.446;2022-09-12T10:21:35;23.10;79.80
37518;DHT22;23366;52.498;13.446;2022-09-12T10:27:20;23.20;78.70
37518;DHT22;23366;52.498;13.446;2022-09-12T10:30:00;23.40;79.50
37518;DHT22;23366;52.498;13.446;2022-09-12T10:32:48;23.40;79.00
37518;DHT22;23366;52.498;13.446;2022-09-12T10:35:17;23.40;78.00
37518;DHT22;23366;52.498;13.446;2022-09-12T10:38:00;23.40;79.10
37518;DHT22;23366;52.498;13.446;2022-09-12T10:43:15;23.40;78.50
37518;DHT22;23366;52.498;13.446;2022-09-12T10:45:41;23.50;79.50
37518;DHT22;23366;52.498;13.446;2022-09-12T10:48:29;23.50;80.40
37518;DHT22;23366;52.498;13.446;2022-09-12T10:50:59;23.50;79.40
37518;DHT22;23366;52.498;13.446;2022-09-12T10:53:47;23.60;79.30
37518;DHT22;23366;52.498;13.446;2022-09-12T10:56:12;23.50;77.30
37518;DHT22;23366;52.498;13.446;2022-09-12T10:59:08;23.40;77.60
37518;DHT22;23366;52.498;13.446;2022-09-12T11:01:43;23.40;78.70
37518;DHT22;23366;52.498;13.446;2022-09-12T11:04:32;23.50;79.50
37518;DHT22;23366;52.498;13.446;2022-09-12T11:07:25;23.50;78.30
37518;DHT22;23366;52.498;13.446;2022-09-12T11:10:12;23.40;78.20
37518;DHT22;23366;52.498;13.446;2022-09-12T11:19:04;23.00;78.80
37518;DHT22;23366;52.498;13.446;2022-09-12T11:27:31;22.70;79.90
37518;DHT22;23366;52.498;13.446;2022-09-12T11:30:02;22.70;79.00
37518;DHT22;23366;52.498;13.446;2022-09-12T11:32:56;22.90;79.90
37518;DHT22;23366;52.498;13.446;2022-09-12T11:38:12;23.20;77.90
37518;DHT22;23366;52.498;13.446;2022-09-12T11:40:54;23.40;78.10
37518;DHT22;23366;52.498;13.446;2022-09-12T11:45:46;23.70;77.30
37518;DHT22;23366;52.498;13.446;2022-09-12T11:48:28;23.70;76.20
37518;DHT22;23366;52.498;13.446;2022-09-12T11:50:57;23.80;76.20
37518;DHT22;23366;52.498;13.446;2022-09-12T11:53:28;23.80;74.90
37518;DHT22;23366;52.498;13.446;2022-09-12T11:56:01;23.60;73.80
37518;DHT22;23366;52.498;13.446;2022-09-12T11:58:29;23.70;75.40
37518;DHT22;23366;52.498;13.446;2022-09-12T12:01:01;23.80;75.10
37518;DHT22;23366;52.498;13.446;2022-09-12T12:03:43;24.00;74.50
37518;DHT22;23366;52.498;13.446;2022-09-12T12:06:21;24.00;74.80
37518;DHT22;23366;52.498;13.446;2022-09-12T12:08:49;24.10;74.70
37518;DHT22;23366;52.498;13.446;2022-09-12T12:11:26;24.10;74.20
37518;DHT22;23366;52.498;13.446;2022-09-12T12:16:29;24.00;75.00
37518;DHT22;23366;52.498;13.446;2022-09-12T12:19:01;24.00;74.50
37518;DHT22;23366;52.498;13.446;2022-09-12T12:29:07;23.70;75.80
37518;DHT22;23366;52.498;13.446;2022-09-12T12:34:42;23.50;76.60
37518;DHT22;23366;52.498;13.446;2022-09-12T12:45:00;23.20;77.10
37518;DHT22;23366;52.498;13.446;2022-09-12T12:47:31;23.10;77.80
37518;DHT22;23366;52.498;13.446;2022-09-12T12:50:02;23.10;78.50
37518;DHT22;23366;52.498;13.446;2022-09-12T12:52:30;23.00;78.10
37518;DHT22;23366;52.498;13.446;2022-09-12T12:54:59;23.00;78.40
37518;DHT22;23366;52.498;13.446;2022-09-12T13:00:26;22.90;78.30
37518;DHT22;23366;52.498;13.446;2022-09-12T13:03:08;23.00;79.50
37518;DHT22;23366;52.498;13.446;2022-09-12T13:10:55;23.00;78.80
37518;DHT22;23366;52.498;13.446;2022-09-12T13:13:30;23.00;78.00
37518;DHT22;23366;52.498;13.446;2022-09-12T13:15:56;23.00;77.40
37518;DHT22;23366;52.498;13.446;2022-09-12T13:18:27;23.00;78.20
37518;DHT22;23366;52.498;13.446;2022-09-12T13:21:14;23.00;77.70
37518;DHT22;23366;52.498;13.446;2022-09-12T13:23:41;23.00;76.40
37518;DHT22;23366;52.498;13.446;2022-09-12T13:26:13;22.90;77.90
37518;DHT22;23366;52.498;13.446;2022-09-12T13:28:45;23.00;77.20
37518;DHT22;23366;52.498;13.446;2022-09-12T13:33:52;23.00;77.70
37518;DHT22;23366;52.498;13.446;2022-09-12T13:44:20;23.10;78.20
37518;DHT22;23366;52.498;13.446;2022-09-12T13:46:48;23.20;77.80
37518;DHT22;23366;52.498;13.446;2022-09-12T13:49:35;23.20;77.00
37518;DHT22;23366;52.498;13.446;2022-09-12T13:52:02;23.30;77.70
37518;DHT22;23366;52.498;13.446;2022-09-12T13:54:30;23.40;76.60
37518;DHT22;23366;52.498;13.446;2022-09-12T13:56:56;23.40;77.70
37518;DHT22;23366;52.498;13.446;2022-09-12T13:59:22;23.40;77.30
37518;DHT22;23366;52.498;13.446;2022-09-12T14:01:48;23.40;77.10
37518;DHT22;23366;52.498;13.446;2022-09-12T14:04:22;23.40;76.90
37518;DHT22;23366;52.498;13.446;2022-09-12T14:07:19;23.50;76.50
37518;DHT22;23366;52.498;13.446;2022-09-12T14:09:52;23.50;75.70
37518;DHT22;23366;52.498;13.446;2022-09-12T14:12:21;23.40;76.80
37518;DHT22;23366;52.498;13.446;2022-09-12T14:14:50;23.40;75.80
37518;DHT22;23366;52.498;13.446;2022-09-12T14:17:23;23.40;76.50
37518;DHT22;23366;52.498;13.446;2022-09-12T14:19:50;23.40;77.80
37518;DHT22;23366;52.498;13.446;2022-09-12T14:22:17;23.40;76.40
37518;DHT22;23366;52.498;13.446;2022-09-12T14:24:47;23.30;76.70
37518;DHT22;23366;52.498;13.446;2022-09-12T14:27:22;23.20;76.80
37518;DHT22;23366;52.498;13.446;2022-09-12T14:30:07;23.20;77.90
37518;DHT22;23366;52.498;13.446;2022-09-12T14:32:39;23.20;77.70
37518;DHT22;23366;52.498;13.446;2022-09-12T14:37:40;23.20;78.40
37518;DHT22;23366;52.498;13.446;2022-09-12T14:40:18;23.20;77.70
37518;DHT22;23366;52.498;13.446;2022-09-12T14:42:45;23.10;77.40
37518;DHT22;23366;52.498;13.446;2022-09-12T14:45:17;23.10;77.30
37518;DHT22;23366;52.498;13.446;2022-09-12T14:47:48;23.00;77.90
37518;DHT22;23366;52.498;13.446;2022-09-12T14:50:17;23.00;78.30
37518;DHT22;23366;52.498;13.446;2022-09-12T14:52:43;23.00;78.10
37518;DHT22;23366;52.498;13.446;2022-09-12T14:57:40;22.90;78.40
37518;DHT22;23366;52.498;13.446;2022-09-12T15:02:42;22.90;78.80
37518;DHT22;23366;52.498;13.446;2022-09-12T15:07:50;22.70;79.00
37518;DHT22;23366;52.498;13.446;2022-09-12T15:10:33;22.70;78.60
37518;DHT22;23366;52.498;13.446;2022-09-12T15:13:03;22.70;77.80
37518;DHT22;23366;52.498;13.446;2022-09-12T15:15:35;22.60;78.50
37518;DHT22;23366;52.498;13.446;2022-09-12T15:18:01;22.50;78.60
37518;DHT22;23366;52.498;13.446;2022-09-12T15:20:26;22.50;80.00
37518;DHT22;23366;52.498;13.446;2022-09-12T15:22:52;22.50;81.00
37518;DHT22;23366;52.498;13.446;2022-09-12T15:25:19;22.40;79.90
37518;DHT22;23366;52.498;13.446;2022-09-12T15:27:46;22.40;79.40
37518;DHT22;23366;52.498;13.446;2022-09-12T15:30:12;22.30;79.10
37518;DHT22;23366;52.498;13.446;2022-09-12T15:32:39;22.30;79.00
37518;DHT22;23366;52.498;13.446;2022-09-12T15:35:21;22.20;79.00
37518;DHT22;23366;52.498;13.446;2022-09-12T15:37:48;22.20;78.70
37518;DHT22;23366;52.498;13.446;2022-09-12T15:40:14;22.10;79.60
37518;DHT22;23366;52.498;13.446;2022-09-12T15:42:40;22.10;78.70
37518;DHT22;23366;52.498;13.446;2022-09-12T15:45:18;22.00;79.40
37518;DHT22;23366;52.498;13.446;2022-09-12T15:47:44;22.00;79.40
37518;DHT22;23366;52.498;13.446;2022-09-12T15:50:10;21.90;80.30
37518;DHT22;23366;52.498;13.446;2022-09-12T15:52:36;21.90;81.00
37518;DHT22;23366;52.498;13.446;2022-09-12T15:55:03;21.90;81.10
37518;DHT22;23366;52.498;13.446;2022-09-12T15:57:28;21.80;80.80
37518;DHT22;23366;52.498;13.446;2022-09-12T15:59:54;21.80;81.10
37518;DHT22;23366;52.498;13.446;2022-09-12T16:02:19;21.70;81.20
37518;DHT22;23366;52.498;13.446;2022-09-12T16:04:45;21.70;81.70
37518;DHT22;23366;52.498;13.446;2022-09-12T16:07:12;21.70;81.10
37518;DHT22;23366;52.498;13.446;2022-09-12T16:09:38;21.60;80.70
37518;DHT22;23366;52.498;13.446;2022-09-12T16:12:03;21.60;80.80
37518;DHT22;23366;52.498;13.446;2022-09-12T16:14:29;21.50;81.30
37518;DHT22;23366;52.498;13.446;2022-09-12T16:16:55;21.40;81.50
37518;DHT22;23366;52.498;13.446;2022-09-12T16:19:21;21.40;81.70
37518;DHT22;23366;52.498;13.446;2022-09-12T16:21:47;21.30;83.10
37518;DHT22;23366;52.498;13.446;2022-09-12T16:24:12;21.30;84.60
37518;DHT22;23366;52.498;13.446;2022-09-12T16:26:38;21.20;83.50
37518;DHT22;23366;52.498;13.446;2022-09-12T16:29:03;21.20;84.10
37518;DHT22;23366;52.498;13.446;2022-09-12T16:31:29;21.20;84.40
37518;DHT22;23366;52.498;13.446;2022-09-12T16:33:55;21.10;84.50
37518;DHT22;23366;52.498;13.446;2022-09-12T16:36:22;21.10;84.60
37518;DHT22;23366;52.498;13.446;2022-09-12T16:38:52;21.00;84.70
37518;DHT22;23366;52.498;13.446;2022-09-12T16:41:21;21.00;85.30
37518;DHT22;23366;52.498;13.446;2022-09-12T16:43:47;20.90;86.10
37518;DHT22;23366;52.498;13.446;2022-09-12T16:46:15;20.90;86.60
37518;DHT22;23366;52.498;13.446;2022-09-12T16:48:42;20.80;86.30
37518;DHT22;23366;52.498;13.446;2022-09-12T16:51:09;20.80;87.30
37518;DHT22;23366;52.498;13.446;2022-09-12T16:53:36;20.80;86.20
37518;DHT22;23366;52.498;13.446;2022-09-12T16:56:03;20.70;85.40
37518;DHT22;23366;52.498;13.446;2022-09-12T16:58:36;20.70;85.60
37518;DHT22;23366;52.498;13.446;2022-09-12T17:01:23;20.60;86.10
37518;DHT22;23366;52.498;13.446;2022-09-12T17:03:53;20.50;86.50
37518;DHT22;23366;52.498;13.446;2022-09-12T17:06:19;20.50;87.30
37518;DHT22;23366;52.498;13.446;2022-09-12T17:08:47;20.40;87.60
37518;DHT22;23366;52.498;13.446;2022-09-12T17:11:15;20.40;87.60
37518;DHT22;23366;52.498;13.446;2022-09-12T17:13:46;20.30;87.40
37518;DHT22;23366;52.498;13.446;2022-09-12T17:16:12;20.20;87.50
37518;DHT22;23366;52.498;13.446;2022-09-12T17:18:38;20.20;88.90
37518;DHT22;23366;52.498;13.446;2022-09-12T17:21:05;20.10;87.80
37518;DHT22;23366;52.498;13.446;2022-09-12T17:23:31;20.10;88.10
37518;DHT22;23366;52.498;13.446;2022-09-12T17:25:57;20.00;88.90
37518;DHT22;23366;52.498;13.446;2022-09-12T17:28:24;20.00;88.80
37518;DHT22;23366;52.498;13.446;2022-09-12T17:30:57;19.90;89.30
37518;DHT22;23366;52.498;13.446;2022-09-12T17:33:23;19.90;89.80
37518;DHT22;23366;52.498;13.446;2022-09-12T17:35:49;19.80;90.10
37518;DHT22;23366;52.498;13.446;2022-09-12T17:38:15;19.80;90.30
37518;DHT22;23366;52.498;13.446;2022-09-12T17:40:41;19.80;90.30
37518;DHT22;23366;52.498;13.446;2022-09-12T17:43:07;19.70;90.70
37518;DHT22;23366;52.498;13.446;2022-09-12T17:45:32;19.70;91.20
37518;DHT22;23366;52.498;13.446;2022-09-12T17:47:58;19.60;91.40